sensor_id;sensor_type;location;lat;lon;timestamp;P1;durP1;ratioP1;P2;durP2;ratioP2
870;SDS011;422;51.280;7.236;2023-08-06T00:00:01;7.03;;;4.30;;
870;SDS011;422;51.280;7.236;2023-08-06T00:02:29;5.90;;;5.10;;
870;SDS011;422;51.280;7.236;2023-08-06T00:04:57;5.67;;;4.70;;
870;SDS011;422;51.280;7.236;2023-08-06T00:07:24;6.03;;;4.13;;
870;SDS011;422;51.280;7.236;2023-08-06T00:09:51;5.80;;;4.77;;
870;SDS011;422;51.280;7.236;2023-08-06T00:12:18;4.73;;;4.30;;
870;SDS011;422;51.280;7.236;2023-08-06T00:14:49;5.10;;;4.50;;
870;SDS011;422;51.280;7.236;2023-08-06T00:17:16;5.33;;;4.83;;
870;SDS011;422;51.280;7.236;2023-08-06T00:19:44;6.20;;;5.40;;
870;SDS011;422;51.280;7.236;2023-08-06T00:22:11;8.33;;;4.60;;
870;SDS011;422;51.280;7.236;2023-08-06T00:24:38;5.00;;;4.17;;
870;SDS011;422;51.280;7.236;2023-08-06T00:27:05;8.10;;;4.83;;
870;SDS011;422;51.280;7.236;2023-08-06T00:29:33;5.20;;;4.43;;
870;SDS011;422;51.280;7.236;2023-08-06T00:32:02;8.13;;;4.77;;
870;SDS011;422;51.280;7.236;2023-08-06T00:34:29;5.87;;;5.17;;
870;SDS011;422;51.280;7.236;2023-08-06T00:36:56;6.03;;;5.43;;
870;SDS011;422;51.280;7.236;2023-08-06T00:39:24;5.80;;;5.17;;
870;SDS011;422;51.280;7.236;2023-08-06T00:41:51;4.93;;;4.53;;
870;SDS011;422;51.280;7.236;2023-08-06T00:44:18;5.60;;;4.83;;
870;SDS011;422;51.280;7.236;2023-08-06T00:46:45;6.70;;;4.47;;
870;SDS011;422;51.280;7.236;2023-08-06T00:49:13;5.80;;;4.50;;
870;SDS011;422;51.280;7.236;2023-08-06T00:51:41;5.33;;;4.80;;
870;SDS011;422;51.280;7.236;2023-08-06T00:54:09;5.70;;;4.43;;
870;SDS011;422;51.280;7.236;2023-08-06T00:56:36;5.93;;;4.70;;
870;SDS011;422;51.280;7.236;2023-08-06T00:59:04;5.13;;;4.60;;
870;SDS011;422;51.280;7.236;2023-08-06T01:01:32;6.37;;;5.10;;
870;SDS011;422;51.280;7.236;2023-08-06T01:03:59;6.23;;;5.50;;
870;SDS011;422;51.280;7.236;2023-08-06T01:06:31;7.37;;;4.60;;
870;SDS011;422;51.280;7.236;2023-08-06T01:09:07;7.70;;;5.30;;
870;SDS011;422;51.280;7.236;2023-08-06T01:11:44;5.60;;;5.00;;
870;SDS011;422;51.280;7.236;2023-08-06T01:14:18;7.60;;;4.90;;
870;SDS011;422;51.280;7.236;2023-08-06T01:16:51;5.73;;;5.13;;
870;SDS011;422;51.280;7.236;2023-08-06T01:19:20;8.77;;;6.60;;
870;SDS011;422;51.280;7.236;2023-08-06T01:21:49;5.87;;;5.30;;
870;SDS011;422;51.280;7.236;2023-08-06T01:24:16;5.50;;;5.00;;
870;SDS011;422;51.280;7.236;2023-08-06T01:26:45;5.47;;;4.50;;
870;SDS011;422;51.280;7.236;2023-08-06T01:29:19;6.57;;;5.03;;
870;SDS011;422;51.280;7.236;2023-08-06T01:31:51;6.70;;;5.70;;
870;SDS011;422;51.280;7.236;2023-08-06T01:34:22;5.77;;;5.20;;
870;SDS011;422;51.280;7.236;2023-08-06T01:36:53;7.40;;;5.23;;
870;SDS011;422;51.280;7.236;2023-08-06T01:39:20;6.17;;;5.57;;
870;SDS011;422;51.280;7.236;2023-08-06T01:41:48;9.33;;;5.40;;
870;SDS011;422;51.280;7.236;2023-08-06T01:44:15;6.10;;;4.97;;
870;SDS011;422;51.280;7.236;2023-08-06T01:46:42;7.50;;;5.90;;
870;SDS011;422;51.280;7.236;2023-08-06T01:49:10;5.87;;;4.97;;
870;SDS011;422;51.280;7.236;2023-08-06T01:51:37;4.70;;;4.30;;
870;SDS011;422;51.280;7.236;2023-08-06T01:54:05;6.23;;;5.60;;
870;SDS011;422;51.280;7.236;2023-08-06T01:56:32;8.23;;;5.57;;
870;SDS011;422;51.280;7.236;2023-08-06T01:58:59;8.10;;;5.60;;
870;SDS011;422;51.280;7.236;2023-08-06T02:01:27;5.23;;;4.73;;
870;SDS011;422;51.280;7.236;2023-08-06T02:03:54;10.53;;;5.00;;
870;SDS011;422;51.280;7.236;2023-08-06T02:06:21;8.37;;;5.40;;
870;SDS011;422;51.280;7.236;2023-08-06T02:08:48;6.30;;;5.30;;
870;SDS011;422;51.280;7.236;2023-08-06T02:11:16;6.00;;;4.60;;
870;SDS011;422;51.280;7.236;2023-08-06T02:13:44;6.00;;;4.73;;
870;SDS011;422;51.280;7.236;2023-08-06T02:16:12;6.83;;;5.10;;
870;SDS011;422;51.280;7.236;2023-08-06T02:18:39;6.50;;;4.90;;
870;SDS011;422;51.280;7.236;2023-08-06T02:21:06;8.80;;;6.00;;
870;SDS011;422;51.280;7.236;2023-08-06T02:23:33;5.30;;;4.80;;
870;SDS011;422;51.280;7.236;2023-08-06T02:26:01;5.80;;;5.20;;
870;SDS011;422;51.280;7.236;2023-08-06T02:28:31;5.30;;;4.80;;
870;SDS011;422;51.280;7.236;2023-08-06T02:30:59;6.47;;;4.90;;
870;SDS011;422;51.280;7.236;2023-08-06T02:33:26;5.67;;;5.10;;
870;SDS011;422;51.280;7.236;2023-08-06T02:35:58;5.30;;;4.80;;
870;SDS011;422;51.280;7.236;2023-08-06T02:38:26;4.60;;;4.10;;
870;SDS011;422;51.280;7.236;2023-08-06T02:40:54;7.37;;;5.10;;
870;SDS011;422;51.280;7.236;2023-08-06T02:43:21;5.10;;;4.63;;
870;SDS011;422;51.280;7.236;2023-08-06T02:45:49;6.93;;;4.43;;
870;SDS011;422;51.280;7.236;2023-08-06T02:48:16;6.30;;;4.90;;
870;SDS011;422;51.280;7.236;2023-08-06T02:50:44;10.50;;;4.90;;
870;SDS011;422;51.280;7.236;2023-08-06T02:53:11;5.33;;;4.83;;
870;SDS011;422;51.280;7.236;2023-08-06T02:55:38;5.73;;;5.13;;
870;SDS011;422;51.280;7.236;2023-08-06T02:58:13;5.60;;;4.43;;
870;SDS011;422;51.280;7.236;2023-08-06T03:00:40;5.53;;;5.03;;
870;SDS011;422;51.280;7.236;2023-08-06T03:03:09;6.37;;;5.30;;
870;SDS011;422;51.280;7.236;2023-08-06T03:05:36;7.20;;;4.07;;
870;SDS011;422;51.280;7.236;2023-08-06T03:08:04;7.50;;;5.23;;
870;SDS011;422;51.280;7.236;2023-08-06T03:10:31;5.67;;;4.40;;
870;SDS011;422;51.280;7.236;2023-08-06T03:12:58;6.63;;;4.80;;
870;SDS011;422;51.280;7.236;2023-08-06T03:15:26;5.00;;;4.00;;
870;SDS011;422;51.280;7.236;2023-08-06T03:17:55;5.93;;;4.57;;
870;SDS011;422;51.280;7.236;2023-08-06T03:20:24;6.07;;;5.10;;
870;SDS011;422;51.280;7.236;2023-08-06T03:22:51;5.27;;;4.77;;
870;SDS011;422;51.280;7.236;2023-08-06T03:25:19;6.93;;;5.17;;
870;SDS011;422;51.280;7.236;2023-08-06T03:27:46;7.03;;;4.70;;
870;SDS011;422;51.280;7.236;2023-08-06T03:30:13;5.60;;;5.00;;
870;SDS011;422;51.280;7.236;2023-08-06T03:32:40;5.13;;;4.60;;
870;SDS011;422;51.280;7.236;2023-08-06T03:35:07;5.30;;;4.80;;
870;SDS011;422;51.280;7.236;2023-08-06T03:37:36;8.83;;;4.80;;
870;SDS011;422;51.280;7.236;2023-08-06T03:40:03;6.40;;;4.63;;
870;SDS011;422;51.280;7.236;2023-08-06T03:42:31;4.60;;;4.20;;
870;SDS011;422;51.280;7.236;2023-08-06T03:44:58;4.87;;;4.33;;
870;SDS011;422;51.280;7.236;2023-08-06T03:47:25;6.30;;;4.50;;
870;SDS011;422;51.280;7.236;2023-08-06T03:49:52;4.53;;;4.13;;
870;SDS011;422;51.280;7.236;2023-08-06T03:52:20;5.70;;;4.83;;
870;SDS011;422;51.280;7.236;2023-08-06T03:54:48;4.87;;;4.30;;
870;SDS011;422;51.280;7.236;2023-08-06T03:57:15;4.80;;;4.30;;
870;SDS011;422;51.280;7.236;2023-08-06T03:59:42;7.23;;;4.57;;
870;SDS011;422;51.280;7.236;2023-08-06T04:02:09;5.23;;;4.57;;
870;SDS011;422;51.280;7.236;2023-08-06T04:04:37;4.60;;;3.97;;
870;SDS011;422;51.280;7.236;2023-08-06T04:07:04;4.83;;;3.87;;
870;SDS011;422;51.280;7.236;2023-08-06T04:09:31;4.57;;;4.17;;
870;SDS011;422;51.280;7.236;2023-08-06T04:12:00;4.73;;;4.00;;
870;SDS011;422;51.280;7.236;2023-08-06T04:14:28;7.77;;;5.23;;
870;SDS011;422;51.280;7.236;2023-08-06T04:16:55;6.57;;;4.67;;
870;SDS011;422;51.280;7.236;2023-08-06T04:19:22;6.43;;;4.60;;
870;SDS011;422;51.280;7.236;2023-08-06T04:21:50;6.10;;;4.30;;
870;SDS011;422;51.280;7.236;2023-08-06T04:24:17;5.17;;;4.67;;
870;SDS011;422;51.280;7.236;2023-08-06T04:26:44;4.60;;;4.20;;
870;SDS011;422;51.280;7.236;2023-08-06T04:29:12;6.37;;;4.80;;
870;SDS011;422;51.280;7.236;2023-08-06T04:31:39;6.80;;;4.63;;
870;SDS011;422;51.280;7.236;2023-08-06T04:34:06;5.80;;;4.80;;
870;SDS011;422;51.280;7.236;2023-08-06T04:36:34;4.87;;;4.10;;
870;SDS011;422;51.280;7.236;2023-08-06T04:39:01;11.60;;;4.70;;
870;SDS011;422;51.280;7.236;2023-08-06T04:41:28;5.47;;;4.30;;
870;SDS011;422;51.280;7.236;2023-08-06T04:43:56;7.70;;;5.17;;
870;SDS011;422;51.280;7.236;2023-08-06T04:46:24;4.90;;;4.00;;
870;SDS011;422;51.280;7.236;2023-08-06T04:48:52;7.67;;;4.17;;
870;SDS011;422;51.280;7.236;2023-08-06T04:51:19;6.90;;;4.50;;
870;SDS011;422;51.280;7.236;2023-08-06T04:53:46;8.00;;;4.57;;
870;SDS011;422;51.280;7.236;2023-08-06T04:56:13;7.60;;;4.27;;
870;SDS011;422;51.280;7.236;2023-08-06T04:58:40;4.90;;;4.33;;
870;SDS011;422;51.280;7.236;2023-08-06T05:01:07;6.50;;;4.83;;
870;SDS011;422;51.280;7.236;2023-08-06T05:03:36;5.77;;;4.20;;
870;SDS011;422;51.280;7.236;2023-08-06T05:06:03;6.80;;;4.30;;
870;SDS011;422;51.280;7.236;2023-08-06T05:08:31;5.53;;;4.67;;
870;SDS011;422;51.280;7.236;2023-08-06T05:10:59;4.73;;;3.80;;
870;SDS011;422;51.280;7.236;2023-08-06T05:13:26;4.83;;;4.27;;
870;SDS011;422;51.280;7.236;2023-08-06T05:15:53;4.80;;;4.30;;
870;SDS011;422;51.280;7.236;2023-08-06T05:18:21;6.17;;;3.90;;
870;SDS011;422;51.280;7.236;2023-08-06T05:20:49;4.10;;;3.67;;
870;SDS011;422;51.280;7.236;2023-08-06T05:23:17;5.67;;;4.03;;
870;SDS011;422;51.280;7.236;2023-08-06T05:25:44;6.80;;;4.10;;
870;SDS011;422;51.280;7.236;2023-08-06T05:28:11;5.90;;;4.17;;
870;SDS011;422;51.280;7.236;2023-08-06T05:30:39;6.27;;;4.07;;
870;SDS011;422;51.280;7.236;2023-08-06T05:33:06;7.23;;;3.87;;
870;SDS011;422;51.280;7.236;2023-08-06T05:35:34;6.23;;;4.33;;
870;SDS011;422;51.280;7.236;2023-08-06T05:38:02;4.50;;;4.10;;
870;SDS011;422;51.280;7.236;2023-08-06T05:40:30;5.30;;;3.50;;
870;SDS011;422;51.280;7.236;2023-08-06T05:42:59;4.90;;;3.40;;
870;SDS011;422;51.280;7.236;2023-08-06T05:45:26;7.80;;;4.17;;
870;SDS011;422;51.280;7.236;2023-08-06T05:47:53;5.10;;;3.80;;
870;SDS011;422;51.280;7.236;2023-08-06T05:50:23;4.70;;;3.77;;
870;SDS011;422;51.280;7.236;2023-08-06T05:52:50;6.30;;;3.70;;
870;SDS011;422;51.280;7.236;2023-08-06T05:55:19;4.50;;;3.47;;
870;SDS011;422;51.280;7.236;2023-08-06T05:57:46;5.40;;;3.80;;
870;SDS011;422;51.280;7.236;2023-08-06T06:00:14;5.97;;;3.60;;
870;SDS011;422;51.280;7.236;2023-08-06T06:02:41;4.43;;;3.30;;
870;SDS011;422;51.280;7.236;2023-08-06T06:05:08;5.43;;;3.07;;
870;SDS011;422;51.280;7.236;2023-08-06T06:07:36;4.40;;;3.23;;
870;SDS011;422;51.280;7.236;2023-08-06T06:10:03;5.20;;;3.40;;
870;SDS011;422;51.280;7.236;2023-08-06T06:12:32;4.57;;;3.40;;
870;SDS011;422;51.280;7.236;2023-08-06T06:14:59;4.97;;;3.27;;
870;SDS011;422;51.280;7.236;2023-08-06T06:17:27;4.47;;;3.40;;
870;SDS011;422;51.280;7.236;2023-08-06T06:19:54;3.80;;;2.87;;
870;SDS011;422;51.280;7.236;2023-08-06T06:22:21;4.80;;;2.90;;
870;SDS011;422;51.280;7.236;2023-08-06T06:24:48;3.50;;;3.10;;
870;SDS011;422;51.280;7.236;2023-08-06T06:27:15;3.40;;;2.90;;
870;SDS011;422;51.280;7.236;2023-08-06T06:29:44;4.97;;;3.40;;
870;SDS011;422;51.280;7.236;2023-08-06T06:32:11;5.60;;;3.20;;
870;SDS011;422;51.280;7.236;2023-08-06T06:34:38;5.17;;;3.37;;
870;SDS011;422;51.280;7.236;2023-08-06T06:37:05;8.97;;;3.10;;
870;SDS011;422;51.280;7.236;2023-08-06T06:39:33;4.20;;;2.73;;
870;SDS011;422;51.280;7.236;2023-08-06T06:42:00;4.23;;;3.10;;
870;SDS011;422;51.280;7.236;2023-08-06T06:44:27;3.60;;;2.70;;
870;SDS011;422;51.280;7.236;2023-08-06T06:46:55;3.30;;;2.90;;
870;SDS011;422;51.280;7.236;2023-08-06T06:49:22;5.63;;;3.20;;
870;SDS011;422;51.280;7.236;2023-08-06T06:51:50;4.20;;;2.83;;
870;SDS011;422;51.280;7.236;2023-08-06T06:54:17;3.37;;;2.77;;
870;SDS011;422;51.280;7.236;2023-08-06T06:56:44;3.97;;;2.77;;
870;SDS011;422;51.280;7.236;2023-08-06T06:59:12;3.57;;;2.30;;
870;SDS011;422;51.280;7.236;2023-08-06T07:01:39;4.50;;;2.90;;
870;SDS011;422;51.280;7.236;2023-08-06T07:04:10;3.93;;;2.60;;
870;SDS011;422;51.280;7.236;2023-08-06T07:06:37;2.83;;;2.40;;
870;SDS011;422;51.280;7.236;2023-08-06T07:09:04;3.10;;;2.80;;
870;SDS011;422;51.280;7.236;2023-08-06T07:11:32;4.83;;;3.30;;
870;SDS011;422;51.280;7.236;2023-08-06T07:13:59;3.20;;;2.20;;
870;SDS011;422;51.280;7.236;2023-08-06T07:16:26;3.00;;;2.30;;
870;SDS011;422;51.280;7.236;2023-08-06T07:18:54;2.77;;;2.20;;
870;SDS011;422;51.280;7.236;2023-08-06T07:21:23;2.57;;;2.27;;
870;SDS011;422;51.280;7.236;2023-08-06T07:23:50;3.00;;;2.40;;
870;SDS011;422;51.280;7.236;2023-08-06T07:26:17;2.83;;;1.70;;
870;SDS011;422;51.280;7.236;2023-08-06T07:28:44;3.27;;;1.90;;
870;SDS011;422;51.280;7.236;2023-08-06T07:31:12;3.80;;;1.90;;
870;SDS011;422;51.280;7.236;2023-08-06T07:33:39;2.53;;;1.87;;
870;SDS011;422;51.280;7.236;2023-08-06T07:36:09;2.17;;;1.83;;
870;SDS011;422;51.280;7.236;2023-08-06T07:38:39;3.23;;;1.90;;
870;SDS011;422;51.280;7.236;2023-08-06T07:41:06;3.50;;;1.77;;
870;SDS011;422;51.280;7.236;2023-08-06T07:43:33;1.90;;;1.40;;
870;SDS011;422;51.280;7.236;2023-08-06T07:46:01;2.20;;;2.00;;
870;SDS011;422;51.280;7.236;2023-08-06T07:48:29;2.67;;;1.63;;
870;SDS011;422;51.280;7.236;2023-08-06T07:50:56;2.13;;;1.70;;
870;SDS011;422;51.280;7.236;2023-08-06T07:53:25;3.80;;;2.07;;
870;SDS011;422;51.280;7.236;2023-08-06T07:55:56;2.17;;;1.97;;
870;SDS011;422;51.280;7.236;2023-08-06T07:58:24;2.30;;;1.60;;
870;SDS011;422;51.280;7.236;2023-08-06T08:00:52;2.07;;;1.60;;
870;SDS011;422;51.280;7.236;2023-08-06T08:03:19;2.10;;;1.90;;
870;SDS011;422;51.280;7.236;2023-08-06T08:05:46;2.00;;;1.60;;
870;SDS011;422;51.280;7.236;2023-08-06T08:08:14;1.87;;;1.37;;
870;SDS011;422;51.280;7.236;2023-08-06T08:10:41;1.93;;;1.50;;
870;SDS011;422;51.280;7.236;2023-08-06T08:13:10;2.17;;;1.90;;
870;SDS011;422;51.280;7.236;2023-08-06T08:15:37;2.13;;;1.60;;
870;SDS011;422;51.280;7.236;2023-08-06T08:18:05;2.40;;;2.20;;
870;SDS011;422;51.280;7.236;2023-08-06T08:20:32;2.13;;;1.50;;
870;SDS011;422;51.280;7.236;2023-08-06T08:23:00;1.90;;;1.40;;
870;SDS011;422;51.280;7.236;2023-08-06T08:25:28;1.77;;;1.53;;
870;SDS011;422;51.280;7.236;2023-08-06T08:27:57;1.97;;;1.40;;
870;SDS011;422;51.280;7.236;2023-08-06T08:30:26;2.03;;;1.30;;
870;SDS011;422;51.280;7.236;2023-08-06T08:32:53;2.70;;;1.23;;
870;SDS011;422;51.280;7.236;2023-08-06T08:35:20;2.30;;;2.00;;
870;SDS011;422;51.280;7.236;2023-08-06T08:37:47;2.20;;;1.80;;
870;SDS011;422;51.280;7.236;2023-08-06T08:40:16;2.10;;;1.70;;
870;SDS011;422;51.280;7.236;2023-08-06T08:42:43;2.93;;;1.80;;
870;SDS011;422;51.280;7.236;2023-08-06T08:45:12;3.40;;;2.00;;
870;SDS011;422;51.280;7.236;2023-08-06T08:47:42;2.33;;;1.53;;
870;SDS011;422;51.280;7.236;2023-08-06T08:50:10;2.47;;;1.90;;
870;SDS011;422;51.280;7.236;2023-08-06T08:52:38;2.20;;;1.83;;
870;SDS011;422;51.280;7.236;2023-08-06T08:55:07;2.87;;;1.80;;
870;SDS011;422;51.280;7.236;2023-08-06T08:57:35;2.57;;;1.60;;
870;SDS011;422;51.280;7.236;2023-08-06T09:00:02;2.50;;;1.90;;
870;SDS011;422;51.280;7.236;2023-08-06T09:02:30;2.40;;;2.00;;
870;SDS011;422;51.280;7.236;2023-08-06T09:05:01;2.93;;;2.30;;
870;SDS011;422;51.280;7.236;2023-08-06T09:07:32;2.00;;;1.57;;
870;SDS011;422;51.280;7.236;2023-08-06T09:10:05;2.43;;;1.90;;
870;SDS011;422;51.280;7.236;2023-08-06T09:12:36;2.50;;;1.90;;
870;SDS011;422;51.280;7.236;2023-08-06T09:15:04;2.50;;;2.30;;
870;SDS011;422;51.280;7.236;2023-08-06T09:17:32;2.60;;;2.20;;
870;SDS011;422;51.280;7.236;2023-08-06T09:20:12;3.03;;;2.00;;
870;SDS011;422;51.280;7.236;2023-08-06T09:22:40;3.43;;;2.43;;
870;SDS011;422;51.280;7.236;2023-08-06T09:25:10;2.30;;;1.90;;
870;SDS011;422;51.280;7.236;2023-08-06T09:27:39;2.57;;;2.00;;
870;SDS011;422;51.280;7.236;2023-08-06T09:30:06;3.20;;;2.17;;
870;SDS011;422;51.280;7.236;2023-08-06T09:32:46;2.80;;;2.20;;
870;SDS011;422;51.280;7.236;2023-08-06T09:35:18;2.77;;;2.30;;
870;SDS011;422;51.280;7.236;2023-08-06T09:37:46;3.10;;;2.57;;
870;SDS011;422;51.280;7.236;2023-08-06T09:40:27;3.07;;;2.40;;
870;SDS011;422;51.280;7.236;2023-08-06T09:42:57;2.87;;;1.90;;
870;SDS011;422;51.280;7.236;2023-08-06T09:45:28;3.20;;;2.10;;
870;SDS011;422;51.280;7.236;2023-08-06T09:47:58;2.83;;;1.80;;
870;SDS011;422;51.280;7.236;2023-08-06T09:50:28;2.73;;;2.53;;
870;SDS011;422;51.280;7.236;2023-08-06T09:52:57;2.87;;;1.83;;
870;SDS011;422;51.280;7.236;2023-08-06T09:55:25;4.50;;;2.50;;
870;SDS011;422;51.280;7.236;2023-08-06T09:57:53;4.20;;;2.17;;
870;SDS011;422;51.280;7.236;2023-08-06T10:00:22;2.40;;;2.07;;
870;SDS011;422;51.280;7.236;2023-08-06T10:02:49;2.90;;;2.53;;
870;SDS011;422;51.280;7.236;2023-08-06T10:05:21;5.63;;;2.57;;
870;SDS011;422;51.280;7.236;2023-08-06T10:07:50;2.93;;;1.90;;
870;SDS011;422;51.280;7.236;2023-08-06T10:10:18;4.10;;;2.13;;
870;SDS011;422;51.280;7.236;2023-08-06T10:12:46;2.53;;;2.13;;
870;SDS011;422;51.280;7.236;2023-08-06T10:15:17;2.27;;;2.07;;
870;SDS011;422;51.280;7.236;2023-08-06T10:17:51;3.07;;;1.97;;
870;SDS011;422;51.280;7.236;2023-08-06T10:20:20;5.93;;;2.73;;
870;SDS011;422;51.280;7.236;2023-08-06T10:23:00;2.77;;;1.80;;
870;SDS011;422;51.280;7.236;2023-08-06T10:25:30;6.10;;;3.03;;
870;SDS011;422;51.280;7.236;2023-08-06T10:27:59;3.80;;;2.60;;
870;SDS011;422;51.280;7.236;2023-08-06T10:30:27;3.40;;;2.70;;
870;SDS011;422;51.280;7.236;2023-08-06T10:32:57;2.80;;;2.27;;
870;SDS011;422;51.280;7.236;2023-08-06T10:35:36;3.33;;;2.80;;
870;SDS011;422;51.280;7.236;2023-08-06T10:38:05;7.00;;;3.00;;
870;SDS011;422;51.280;7.236;2023-08-06T10:40:37;11.10;;;6.30;;
870;SDS011;422;51.280;7.236;2023-08-06T10:43:07;12.80;;;7.33;;
870;SDS011;422;51.280;7.236;2023-08-06T10:45:51;7.70;;;6.90;;
870;SDS011;422;51.280;7.236;2023-08-06T10:48:28;7.37;;;6.53;;
870;SDS011;422;51.280;7.236;2023-08-06T10:50:56;7.80;;;6.83;;
870;SDS011;422;51.280;7.236;2023-08-06T10:53:27;7.57;;;6.83;;
870;SDS011;422;51.280;7.236;2023-08-06T10:55:55;8.07;;;7.27;;
870;SDS011;422;51.280;7.236;2023-08-06T10:58:24;8.70;;;7.90;;
870;SDS011;422;51.280;7.236;2023-08-06T11:00:51;10.83;;;6.70;;
870;SDS011;422;51.280;7.236;2023-08-06T11:03:19;10.50;;;6.50;;
870;SDS011;422;51.280;7.236;2023-08-06T11:05:48;8.10;;;7.03;;
870;SDS011;422;51.280;7.236;2023-08-06T11:08:23;6.93;;;6.27;;
870;SDS011;422;51.280;7.236;2023-08-06T11:10:53;8.20;;;6.23;;
870;SDS011;422;51.280;7.236;2023-08-06T11:13:21;6.50;;;5.80;;
870;SDS011;422;51.280;7.236;2023-08-06T11:15:49;11.20;;;9.33;;
870;SDS011;422;51.280;7.236;2023-08-06T11:18:19;11.13;;;10.07;;
870;SDS011;422;51.280;7.236;2023-08-06T11:20:46;4.93;;;4.43;;
870;SDS011;422;51.280;7.236;2023-08-06T11:23:13;3.70;;;2.83;;
870;SDS011;422;51.280;7.236;2023-08-06T11:25:43;3.80;;;3.50;;
870;SDS011;422;51.280;7.236;2023-08-06T11:28:13;3.30;;;2.97;;
870;SDS011;422;51.280;7.236;2023-08-06T11:30:40;4.87;;;4.47;;
870;SDS011;422;51.280;7.236;2023-08-06T11:33:08;3.87;;;3.47;;
870;SDS011;422;51.280;7.236;2023-08-06T11:35:35;5.80;;;2.90;;
870;SDS011;422;51.280;7.236;2023-08-06T11:38:03;3.23;;;2.93;;
870;SDS011;422;51.280;7.236;2023-08-06T11:40:32;3.33;;;3.03;;
870;SDS011;422;51.280;7.236;2023-08-06T11:42:59;4.20;;;3.60;;
870;SDS011;422;51.280;7.236;2023-08-06T11:45:28;4.03;;;3.20;;
870;SDS011;422;51.280;7.236;2023-08-06T11:47:57;3.23;;;2.93;;
870;SDS011;422;51.280;7.236;2023-08-06T11:50:25;2.40;;;2.20;;
870;SDS011;422;51.280;7.236;2023-08-06T11:52:54;3.53;;;2.20;;
870;SDS011;422;51.280;7.236;2023-08-06T11:55:23;3.00;;;2.70;;
870;SDS011;422;51.280;7.236;2023-08-06T11:57:51;2.70;;;2.23;;
870;SDS011;422;51.280;7.236;2023-08-06T12:00:18;2.97;;;2.67;;
870;SDS011;422;51.280;7.236;2023-08-06T12:02:48;2.30;;;1.80;;
870;SDS011;422;51.280;7.236;2023-08-06T12:05:18;2.33;;;1.90;;
870;SDS011;422;51.280;7.236;2023-08-06T12:07:49;4.40;;;2.30;;
870;SDS011;422;51.280;7.236;2023-08-06T12:10:18;2.37;;;2.17;;
870;SDS011;422;51.280;7.236;2023-08-06T12:12:46;2.77;;;2.47;;
870;SDS011;422;51.280;7.236;2023-08-06T12:15:15;2.80;;;2.37;;
870;SDS011;422;51.280;7.236;2023-08-06T12:17:42;3.13;;;2.63;;
870;SDS011;422;51.280;7.236;2023-08-06T12:20:11;3.50;;;2.30;;
870;SDS011;422;51.280;7.236;2023-08-06T12:22:39;3.00;;;2.67;;
870;SDS011;422;51.280;7.236;2023-08-06T12:25:08;2.97;;;2.67;;
870;SDS011;422;51.280;7.236;2023-08-06T12:27:37;2.80;;;2.50;;
870;SDS011;422;51.280;7.236;2023-08-06T12:30:06;3.23;;;2.17;;
870;SDS011;422;51.280;7.236;2023-08-06T12:32:34;2.30;;;1.40;;
870;SDS011;422;51.280;7.236;2023-08-06T12:35:01;2.60;;;1.90;;
870;SDS011;422;51.280;7.236;2023-08-06T12:37:31;3.30;;;1.80;;
870;SDS011;422;51.280;7.236;2023-08-06T12:39:58;2.97;;;1.60;;
870;SDS011;422;51.280;7.236;2023-08-06T12:42:26;2.40;;;1.60;;
870;SDS011;422;51.280;7.236;2023-08-06T12:44:53;2.77;;;1.70;;
870;SDS011;422;51.280;7.236;2023-08-06T12:47:20;2.60;;;1.90;;
870;SDS011;422;51.280;7.236;2023-08-06T12:49:50;2.23;;;1.37;;
870;SDS011;422;51.280;7.236;2023-08-06T12:52:18;2.53;;;1.57;;
870;SDS011;422;51.280;7.236;2023-08-06T12:54:47;2.20;;;1.50;;
870;SDS011;422;51.280;7.236;2023-08-06T12:57:14;2.20;;;1.40;;
870;SDS011;422;51.280;7.236;2023-08-06T12:59:42;3.13;;;2.23;;
870;SDS011;422;51.280;7.236;2023-08-06T13:02:10;3.07;;;1.60;;
870;SDS011;422;51.280;7.236;2023-08-06T13:04:37;2.37;;;1.90;;
870;SDS011;422;51.280;7.236;2023-08-06T13:07:05;3.90;;;1.97;;
870;SDS011;422;51.280;7.236;2023-08-06T13:09:33;2.30;;;1.57;;
870;SDS011;422;51.280;7.236;2023-08-06T13:12:02;3.57;;;3.27;;
870;SDS011;422;51.280;7.236;2023-08-06T13:14:31;2.70;;;2.10;;
870;SDS011;422;51.280;7.236;2023-08-06T13:16:58;2.70;;;2.40;;
870;SDS011;422;51.280;7.236;2023-08-06T13:19:26;2.83;;;2.10;;
870;SDS011;422;51.280;7.236;2023-08-06T13:22:01;2.97;;;2.43;;
870;SDS011;422;51.280;7.236;2023-08-06T13:24:32;3.00;;;2.60;;
870;SDS011;422;51.280;7.236;2023-08-06T13:26:59;3.10;;;2.60;;
870;SDS011;422;51.280;7.236;2023-08-06T13:29:28;3.80;;;2.57;;
870;SDS011;422;51.280;7.236;2023-08-06T13:31:56;3.10;;;2.70;;
870;SDS011;422;51.280;7.236;2023-08-06T13:34:24;3.10;;;2.80;;
870;SDS011;422;51.280;7.236;2023-08-06T13:36:51;4.07;;;2.50;;
870;SDS011;422;51.280;7.236;2023-08-06T13:39:19;3.20;;;2.70;;
870;SDS011;422;51.280;7.236;2023-08-06T13:41:46;2.90;;;2.30;;
870;SDS011;422;51.280;7.236;2023-08-06T13:44:15;2.80;;;2.50;;
870;SDS011;422;51.280;7.236;2023-08-06T13:46:43;3.27;;;2.97;;
870;SDS011;422;51.280;7.236;2023-08-06T13:49:10;2.83;;;2.53;;
870;SDS011;422;51.280;7.236;2023-08-06T13:51:37;3.47;;;2.80;;
870;SDS011;422;51.280;7.236;2023-08-06T13:54:05;3.80;;;2.87;;
870;SDS011;422;51.280;7.236;2023-08-06T13:56:34;5.23;;;3.50;;
870;SDS011;422;51.280;7.236;2023-08-06T13:59:03;4.27;;;3.87;;
870;SDS011;422;51.280;7.236;2023-08-06T14:01:34;5.10;;;3.93;;
870;SDS011;422;51.280;7.236;2023-08-06T14:04:02;4.30;;;3.90;;
870;SDS011;422;51.280;7.236;2023-08-06T14:06:30;4.07;;;3.60;;
870;SDS011;422;51.280;7.236;2023-08-06T14:08:57;4.70;;;3.50;;
870;SDS011;422;51.280;7.236;2023-08-06T14:11:27;4.60;;;3.93;;
870;SDS011;422;51.280;7.236;2023-08-06T14:13:55;4.63;;;3.93;;
870;SDS011;422;51.280;7.236;2023-08-06T14:16:22;4.10;;;3.70;;
870;SDS011;422;51.280;7.236;2023-08-06T14:18:52;4.37;;;3.53;;
870;SDS011;422;51.280;7.236;2023-08-06T14:21:19;4.20;;;3.33;;
870;SDS011;422;51.280;7.236;2023-08-06T14:23:47;3.70;;;3.20;;
870;SDS011;422;51.280;7.236;2023-08-06T14:26:14;4.93;;;4.00;;
870;SDS011;422;51.280;7.236;2023-08-06T14:28:44;4.00;;;3.47;;
870;SDS011;422;51.280;7.236;2023-08-06T14:31:12;4.40;;;3.60;;
870;SDS011;422;51.280;7.236;2023-08-06T14:33:39;4.73;;;3.80;;
870;SDS011;422;51.280;7.236;2023-08-06T14:36:08;4.13;;;3.70;;
870;SDS011;422;51.280;7.236;2023-08-06T14:38:36;4.20;;;3.80;;
870;SDS011;422;51.280;7.236;2023-08-06T14:41:05;4.63;;;4.10;;
870;SDS011;422;51.280;7.236;2023-08-06T14:43:32;5.03;;;4.27;;
870;SDS011;422;51.280;7.236;2023-08-06T14:45:59;4.87;;;3.53;;
870;SDS011;422;51.280;7.236;2023-08-06T14:48:27;5.40;;;4.30;;
870;SDS011;422;51.280;7.236;2023-08-06T14:50:55;5.03;;;3.97;;
870;SDS011;422;51.280;7.236;2023-08-06T14:53:24;5.40;;;4.27;;
870;SDS011;422;51.280;7.236;2023-08-06T14:55:53;4.57;;;4.00;;
870;SDS011;422;51.280;7.236;2023-08-06T14:58:21;6.80;;;3.63;;
870;SDS011;422;51.280;7.236;2023-08-06T15:00:48;5.00;;;3.90;;
870;SDS011;422;51.280;7.236;2023-08-06T15:03:16;4.80;;;3.73;;
870;SDS011;422;51.280;7.236;2023-08-06T15:05:43;4.77;;;3.77;;
870;SDS011;422;51.280;7.236;2023-08-06T15:08:14;4.10;;;3.63;;
870;SDS011;422;51.280;7.236;2023-08-06T15:10:43;5.00;;;3.63;;
870;SDS011;422;51.280;7.236;2023-08-06T15:13:17;4.27;;;3.30;;
870;SDS011;422;51.280;7.236;2023-08-06T15:15:46;5.23;;;4.10;;
870;SDS011;422;51.280;7.236;2023-08-06T15:18:13;3.20;;;2.90;;
870;SDS011;422;51.280;7.236;2023-08-06T15:20:41;4.33;;;3.40;;
870;SDS011;422;51.280;7.236;2023-08-06T15:23:08;3.97;;;3.33;;
870;SDS011;422;51.280;7.236;2023-08-06T15:25:36;3.87;;;3.27;;
870;SDS011;422;51.280;7.236;2023-08-06T15:28:05;4.27;;;3.87;;
870;SDS011;422;51.280;7.236;2023-08-06T15:30:34;4.87;;;3.70;;
870;SDS011;422;51.280;7.236;2023-08-06T15:33:02;3.50;;;2.67;;
870;SDS011;422;51.280;7.236;2023-08-06T15:35:30;5.63;;;3.33;;
870;SDS011;422;51.280;7.236;2023-08-06T15:37:58;3.90;;;2.93;;
870;SDS011;422;51.280;7.236;2023-08-06T15:40:26;6.80;;;3.00;;
870;SDS011;422;51.280;7.236;2023-08-06T15:42:53;3.27;;;2.77;;
870;SDS011;422;51.280;7.236;2023-08-06T15:45:22;5.13;;;3.27;;
870;SDS011;422;51.280;7.236;2023-08-06T15:47:52;4.63;;;2.70;;
870;SDS011;422;51.280;7.236;2023-08-06T15:50:22;3.20;;;2.90;;